Data for 06/24/2016

Time Sea-Level Adjusted Pressure Absolute Pressure Temperature Relative Humidity Dew Point   
(mb) (inHg) (mb) (inHg) (C) (F) (%) (C) (F)
00:05 1017 30.03 846 24.98 19.5 67.2 33 2.9 37.3
00:10 1017 30.03 846 24.98 19.6 67.2 33 3 37.4
00:15 1017 30.03 847 25.01 19.3 66.8 34 3.2 37.7
00:20 1017 30.03 847 25.01 19.1 66.4 35 3.3 37.9
00:25 1017 30.03 847 25.01 18.9 65.9 36 3.4 38.2
00:30 1017 30.03 847 25.01 18.5 65.3 36 3.5 38.2
00:35 1017 30.03 847 25.01 18.3 65 37 3.4 38.2
00:40 1017 30.03 846 24.98 18.3 64.9 36 3.1 37.6
00:45 1017 30.03 846 24.98 18.5 65.3 35 2.8 37
00:50 1017 30.03 846 24.98 18.7 65.7 33 2.4 36.3
00:55 1017 30.03 846 24.98 18.8 65.8 33 2.4 36.3
01:00 1017 30.03 846 24.98 18.7 65.7 33 2.4 36.3
01:05 1017 30.03 846 24.98 18.7 65.7 33 2.1 35.8
01:10 1017 30.03 846 24.98 18.7 65.7 32 2 35.7
01:15 1017 30.03 846 24.98 18.5 65.3 34 2.5 36.4
01:20 1016 30 846 24.98 18.1 64.5 36 2.9 37.2
01:25 1016 30 846 24.98 17.4 63.4 41 4 39.2
01:30 1016 30 846 24.98 16.6 61.8 43 3.9 39
01:35 1016 30 846 24.98 16.2 61.2 43 3.9 39
01:40 1016 30 846 24.98 16.1 61.1 43 3.7 38.6
01:45 1016 30 846 24.98 16.1 60.9 44 3.8 38.8
01:50 1016 30 846 24.98 15.9 60.6 45 4 39.2
01:55 1016 30 845 24.95 15.7 60.3 45 4 39.1
02:00 1016 30 845 24.95 15.1 59.2 49 4.7 40.4
02:05 1016 30 845 24.95 14.6 58.3 47 3.4 38.1
02:10 1016 30 845 24.95 15.2 59.3 45 3.5 38.3
02:15 1016 30 845 24.95 15.4 59.7 45 3.6 38.4
02:20 1016 30 845 24.95 15.3 59.6 45 3.7 38.6
02:25 1016 30 845 24.95 15.1 59.3 46 3.8 38.9
02:30 1016 30 845 24.95 14.9 58.8 46 3.5 38.4
02:35 1016 30 845 24.95 15.1 59.2 46 3.7 38.6
02:40 1016 30 845 24.95 14.9 58.9 47 3.7 38.6
02:45 1016 30 845 24.95 15 58.9 46 3.6 38.5
02:50 1016 30 845 24.95 14.9 58.9 47 3.7 38.7
02:55 1016 30 845 24.95 14.9 58.8 46 3.6 38.4
03:00 1016 30 845 24.95 14.9 58.8 47 3.7 38.6
03:05 1016 30 845 24.95 14.8 58.7 47 3.8 38.8
03:10 1016 30 845 24.95 14.5 58.2 49 3.9 39.1
03:15 1016 30 845 24.95 14.2 57.6 49 3.7 38.7
03:20 1016 30 845 24.95 14.2 57.6 48 3.6 38.5
03:25 1016 30 845 24.95 14.4 57.9 48 3.6 38.5
03:30 1016 30 845 24.95 14.4 58 48 3.5 38.4
03:35 1016 30 845 24.95 14.5 58 48 3.6 38.4
03:40 1016 30 845 24.95 14.3 57.7 49 3.7 38.7
03:45 1016 30 845 24.95 14.2 57.5 48 3.5 38.3
03:50 1016 30 845 24.95 14.3 57.7 48 3.4 38.1
03:55 1016 30 845 24.95 14.4 57.8 48 3.4 38.2
04:00 1016 30 845 24.95 14.4 57.8 49 3.8 38.9
04:05 1016 30 845 24.95 14.3 57.7 48 3.6 38.5
04:10 1016 30 845 24.95 14.1 57.4 49 3.6 38.4
04:15 1016 30 845 24.95 14.1 57.3 49 3.5 38.3
04:20 1016 30 845 24.95 14.2 57.5 48 3.3 37.9
04:25 1016 30 845 24.95 14.1 57.4 48 3.4 38.1
04:30 1015 29.97 845 24.95 14 57.2 48 3.4 38.1
04:35 1015 29.97 845 24.95 14 57.2 48 3.3 37.9
04:40 1015 29.97 845 24.95 13.9 57 49 3.4 38.1
04:45 1015 29.97 845 24.95 13.7 56.7 50 3.5 38.2
04:50 1015 29.97 845 24.95 13.5 56.4 51 3.7 38.6
04:55 1015 29.97 845 24.95 13.4 56.1 50 3.4 38.1
05:00 1015 29.97 845 24.95 13.5 56.3 51 3.6 38.5
05:05 1015 29.97 845 24.95 13.4 56.1 51 3.5 38.4
05:10 1015 29.97 844 24.92 13.4 56.1 51 3.4 38.1
05:15 1015 29.97 844 24.92 13.7 56.6 49 3.1 37.6
05:20 1015 29.97 844 24.92 14 57.1 48 3.2 37.8
05:25 1015 29.97 844 24.92 14.2 57.5 48 3.3 37.9
05:30 1015 29.97 844 24.92 14.4 57.9 47 3.3 37.9
05:35 1015 29.97 844 24.92 14.4 57.8 47 3.4 38.1
05:40 1015 29.97 845 24.95 14.4 57.9 47 3.4 38.2
05:45 1015 29.97 845 24.95 14.5 58.1 47 3.5 38.3
05:50 1015 29.97 845 24.95 14.8 58.7 44 2.9 37.3
05:55 1015 29.97 845 24.95 15.1 59.3 45 3.4 38.1
06:00 1015 29.97 845 24.95 15.4 59.8 45 3.6 38.6
06:05 1016 30 845 24.95 15.6 60 45 3.7 38.7
06:10 1016 30 845 24.95 15.8 60.5 43 3.5 38.3
06:15 1016 30 845 24.95 16.3 61.3 45 4.3 39.8
06:20 1016 30 845 24.95 16.5 61.7 45 4.6 40.3
06:25 1016 30 845 24.95 16 60.8 46 4.4 39.9
06:30 1016 30 845 24.95 16 60.8 44 4 39.2
06:35 1016 30 845 24.95 16.4 61.6 43 4 39.2
06:40 1016 30 845 24.95 16.8 62.2 47 5.4 41.7
06:45 1016 30 845 24.95 16.3 61.3 49 5.8 42.4
06:50 1016 30 845 24.95 16.1 61 48 5.2 41.4
06:55 1016 30 845 24.95 16.8 62.2 45 5 41
07:00 1015 29.97 845 24.95 17.3 63.1 42 4.2 39.6
07:05 1015 29.97 845 24.95 16.9 62.4 44 4.8 40.6
07:10 1015 29.97 845 24.95 17.3 63.1 42 4.4 40
07:15 1016 30 845 24.95 17 62.5 43 4.4 39.9
07:20 1016 30 845 24.95 17.8 64.1 39 3.8 38.9
07:25 1016 30 845 24.95 18.3 64.9 38 3.9 39
07:30 1016 30 845 24.95 18.3 64.9 39 4.2 39.5
07:35 1015 29.97 845 24.95 17.8 64.1 40 4 39.2
07:40 1015 29.97 845 24.95 17.8 64 39 3.6 38.5
07:45 1015 29.97 845 24.95 17.9 64.3 41 4.5 40.1
07:50 1015 29.97 845 24.95 18.3 65 38 3.8 38.8
07:55 1015 29.97 845 24.95 19 66.3 35 3.5 38.2
08:00 1015 29.97 844 24.92 19.4 67 34 3.3 38
08:05 1015 29.97 844 24.92 19.2 66.6 35 3.6 38.4
08:10 1015 29.97 844 24.92 19.2 66.5 35 3.4 38.1
08:15 1015 29.97 844 24.92 19.5 67.2 34 3.2 37.8
08:20 1015 29.97 844 24.92 20.2 68.3 31 2.6 36.7
08:25 1015 29.97 844 24.92 19.7 67.4 33 3.2 37.7
08:30 1015 29.97 844 24.92 19.5 67 32 2.5 36.5
08:35 1015 29.97 844 24.92 19.9 67.8 32 2.9 37.3
08:40 1015 29.97 844 24.92 19.8 67.6 32 3 37.4
08:45 1015 29.97 844 24.92 20.6 69 33 3.7 38.7
08:50 1015 29.97 844 24.92 20.6 69 33 4.1 39.3
08:55 1015 29.97 844 24.92 20.5 69 31 3 37.3
09:00 1015 29.97 844 24.92 21.1 70 31 3.4 38
09:05 1015 29.97 844 24.92 21.7 71 30 3.6 38.5
09:10 1015 29.97 844 24.92 21.2 70.2 32 3.9 39.1
09:15 1015 29.97 844 24.92 21.3 70.3 32 4.1 39.3
09:20 1015 29.97 844 24.92 21.9 71.4 30 3.9 39.1
09:25 1015 29.97 844 24.92 21 69.8 33 4.2 39.6
09:30 1015 29.97 844 24.92 21.1 69.9 33 4.3 39.7
09:35 1015 29.97 844 24.92 22 71.6 33 5.3 41.5
09:40 1015 29.97 844 24.92 22.2 71.9 33 5.5 41.8
09:45 1015 29.97 844 24.92 22 71.7 33 5.4 41.7
09:50 1015 29.97 844 24.92 22 71.5 34 5.8 42.4
09:55 1015 29.97 844 24.92 21.9 71.4 33 5.1 41.2
10:00 1015 29.97 844 24.92 21.5 70.8 33 4.6 40.3
10:05 1015 29.97 844 24.92 21.9 71.4 36 6.3 43.3
10:10 1015 29.97 844 24.92 21.8 71.2 35 5.9 42.6
10:15 1015 29.97 844 24.92 21.1 70 38 6.2 43.2
10:20 1015 29.97 844 24.92 20.6 69.1 36 5.2 41.4
10:25 1015 29.97 844 24.92 21 69.8 36 5.5 41.9
10:30 1015 29.97 844 24.92 21.3 70.3 35 5.5 41.9
10:35 1015 29.97 844 24.92 20.3 68.6 37 5.3 41.5
10:40 1015 29.97 844 24.92 21.1 69.9 35 5 41.1
10:45 1015 29.97 844 24.92 21 69.8 34 4.9 40.8
10:50 1015 29.97 844 24.92 22.1 71.7 33 5.2 41.4
10:55 1015 29.97 844 24.92 22.6 72.7 32 5.4 41.7
11:00 1015 29.97 844 24.92 22.5 72.4 32 5.1 41.2
11:05 1014 29.94 844 24.92 22.7 72.8 32 5.1 41.3
11:10 1014 29.94 844 24.92 22.9 73.2 31 5.2 41.4
11:15 1014 29.94 844 24.92 23.7 74.7 30 5.5 41.9
11:20 1014 29.94 844 24.92 23.5 74.3 31 5.5 41.8
11:25 1014 29.94 843 24.89 22.8 73 32 5.6 42.1
11:30 1014 29.94 843 24.89 22.5 72.5 32 5.2 41.4
11:35 1014 29.94 843 24.89 22.5 72.6 33 5.5 41.9
11:40 1014 29.94 843 24.89 22.4 72.4 34 5.9 42.7
11:45 1014 29.94 843 24.89 21.4 70.5 34 4.9 40.8
11:50 1013 29.91 843 24.89 22 71.6 34 5.4 41.7
11:55 1013 29.91 843 24.89 22.8 73.1 31 5.2 41.3
12:00 1013 29.91 843 24.89 23.6 74.5 29 4.9 40.8
12:05 1013 29.91 843 24.89 23.9 75.1 27 4.1 39.4
12:10 1013 29.91 843 24.89 24.1 75.4 27 4.1 39.3
12:15 1014 29.94 843 24.89 24.7 76.5 28 5.2 41.3
12:20 1014 29.94 843 24.89 24.2 75.6 30 5.7 42.3
12:25 1014 29.94 843 24.89 23.8 74.8 30 5.1 41.3
12:30 1014 29.94 843 24.89 23 73.4 32 5.7 42.3
12:35 1014 29.94 843 24.89 22.6 72.6 34 5.9 42.7
12:40 1014 29.94 843 24.89 22.1 71.7 35 6.1 43
12:45 1014 29.94 843 24.89 21.5 70.6 34 5.3 41.6
12:50 1014 29.94 843 24.89 21.5 70.7 37 6.4 43.5
12:55 1014 29.94 843 24.89 21.8 71.2 39 7.2 45
13:00 1014 29.94 843 24.89 21.6 70.8 35 5.8 42.4
13:05 1014 29.94 843 24.89 21.5 70.7 35 5.6 42.1
13:10 1014 29.94 843 24.89 21.8 71.2 35 5.8 42.5
13:15 1014 29.94 843 24.89 21.3 70.4 35 5.6 42.1
13:20 1014 29.94 843 24.89 21.5 70.6 35 5.5 41.9
13:25 1013 29.91 843 24.89 22.2 72 29 3.5 38.3
13:30 1013 29.91 842 24.86 21.7 71.1 30 3.7 38.7
13:35 1013 29.91 842 24.86 21.4 70.5 31 3.8 38.8
13:40 1013 29.91 842 24.86 22.2 72 27 2.8 37
13:45 1013 29.91 842 24.86 23.3 74 26 2.9 37.3
13:50 1013 29.91 842 24.86 23.8 74.8 28 4.4 39.9
13:55 1013 29.91 842 24.86 23 73.4 29 4.1 39.3
14:00 1013 29.91 842 24.86 23.1 73.5 29 4.4 39.9
14:05 1013 29.91 842 24.86 21.9 71.5 31 4 39.3
14:10 1014 29.94 843 24.89 21.3 70.4 31 3.7 38.7
14:15 1014 29.94 843 24.89 20.9 69.6 32 3.6 38.5
14:20 1014 29.94 843 24.89 20.5 68.8 33 3.6 38.5
14:25 1014 29.94 844 24.92 20 68 39 5.8 42.4
14:30 1014 29.94 843 24.89 19.4 66.8 39 5.3 41.5
14:35 1014 29.94 843 24.89 19.1 66.3 40 5.4 41.7
14:40 1014 29.94 843 24.89 18.6 65.5 40 5.1 41.1
14:45 1014 29.94 843 24.89 18.3 64.9 43 5.6 42
14:50 1014 29.94 843 24.89 18.2 64.8 43 5.4 41.8
14:55 1014 29.94 843 24.89 18.8 65.8 37 3.8 38.8
15:00 1014 29.94 843 24.89 19 66.2 37 4.1 39.4
15:05 1014 29.94 843 24.89 19 66.1 40 5.4 41.6
15:10 1014 29.94 843 24.89 19 66.2 36 3.9 39
15:15 1014 29.94 843 24.89 18.9 66 37 3.9 39
15:20 1014 29.94 843 24.89 19.2 66.6 33 2.8 37
15:25 1014 29.94 843 24.89 19.4 67 29 1.1 34
15:30 1014 29.94 843 24.89 19.6 67.3 29 1.1 33.9
15:35 1014 29.94 843 24.89 19.6 67.3 31 2.1 35.8
15:40 1014 29.94 843 24.89 19.4 66.8 31 2.1 35.8
15:45 1013 29.91 843 24.89 18.8 65.8 34 2.6 36.6
15:50 1013 29.91 842 24.86 18.5 65.3 35 2.9 37.3
15:55 1013 29.91 842 24.86 18.9 66 35 3.2 37.8
16:00 1013 29.91 843 24.89 18.9 66 37 4.1 39.4
16:05 1014 29.94 843 24.89 18.7 65.6 41 5.4 41.6
16:10 1014 29.94 843 24.89 18.5 65.3 39 4.3 39.7
16:15 1014 29.94 843 24.89 18.6 65.4 40 4.7 40.4
16:20 1014 29.94 843 24.89 17.8 64 50 7.4 45.3
16:25 1014 29.94 843 24.89 16.3 61.3 54 7.1 44.8
16:30 1014 29.94 844 24.92 15.8 60.4 56 7 44.6
16:35 1015 29.97 844 24.92 15.7 60.2 56 7 44.5
16:40 1015 29.97 844 24.92 15.8 60.4 55 6.9 44.4
16:45 1015 29.97 844 24.92 16 60.8 52 6.3 43.4
16:50 1015 29.97 844 24.92 16 60.9 51 6.1 43
16:55 1016 30 845 24.95 16 60.7 50 5.6 42.1
17:00 1016 30 845 24.95 15.8 60.4 50 5.4 41.7
17:05 1016 30 845 24.95 15.6 60 50 5.1 41.3
17:10 1017 30.03 846 24.98 15.6 60.1 50 5.3 41.5
17:15 1017 30.03 846 24.98 15.6 60.1 49 4.9 40.9
17:20 1017 30.03 846 24.98 15.4 59.7 48 4.6 40.3
17:25 1017 30.03 846 24.98 15.2 59.3 49 4.5 40.1
17:30 1017 30.03 846 24.98 15.2 59.4 48 4.5 40
17:35 1017 30.03 847 25.01 15.4 59.6 48 4.4 40
17:40 1018 30.06 847 25.01 15.4 59.7 49 4.8 40.6
17:45 1018 30.06 847 25.01 15.5 60 47 4.3 39.7
17:50 1018 30.06 847 25.01 15.8 60.5 45 4 39.1
17:55 1018 30.06 847 25.01 15.9 60.6 45 4.1 39.4
18:00 1018 30.06 847 25.01 16 60.7 43 3.6 38.6
18:05 1018 30.06 847 25.01 15.9 60.6 44 3.6 38.5
18:10 1018 30.06 847 25.01 15.7 60.3 43 3.2 37.8
18:15 1018 30.06 847 25.01 15.7 60.2 42 3 37.5
18:20 1018 30.06 847 25.01 15.5 59.9 42 2.9 37.2
18:25 1018 30.06 847 25.01 15.5 59.8 43 3.1 37.6
18:30 1018 30.06 847 25.01 15.5 59.8 41 2.5 36.4
18:35 1018 30.06 847 25.01 15.3 59.6 42 2.6 36.7
18:40 1018 30.06 848 25.04 15.2 59.4 42 2.6 36.7
18:45 1018 30.06 848 25.04 15.2 59.4 41 2.3 36.1
18:50 1018 30.06 848 25.04 15.3 59.5 40 1.9 35.4
18:55 1018 30.06 848 25.04 15.2 59.3 40 1.6 35
19:00 1019 30.09 848 25.04 15.1 59.1 40 1.6 34.9
19:05 1018 30.06 848 25.04 15 59 41 2 35.6
19:10 1018 30.06 848 25.04 15 58.9 41 1.9 35.4
19:15 1019 30.09 848 25.04 14.8 58.7 41 1.8 35.3
19:20 1019 30.09 848 25.04 14.9 58.8 40 1.6 34.8
19:25 1019 30.09 848 25.04 14.6 58.3 40 1.4 34.5
19:30 1019 30.09 848 25.04 14.4 58 41 1.3 34.4
19:35 1019 30.09 848 25.04 14.3 57.7 40 1 33.8
19:40 1019 30.09 848 25.04 14.2 57.5 40 0.8 33.5
19:45 1019 30.09 848 25.04 14 57.3 40 0.8 33.4
19:50 1019 30.09 848 25.04 14 57.2 39 0.3 32.6
19:55 1019 30.09 848 25.04 13.9 57.1 38 0.1 32.2
20:00 1019 30.09 848 25.04 13.9 57 38 -0.1 31.8
20:05 1019 30.09 848 25.04 13.8 56.8 38 -0.3 31.4
20:10 1019 30.09 849 25.07 13.7 56.7 38 -0.3 31.5
20:15 1019 30.09 849 25.07 13.6 56.5 37 -0.6 31
20:20 1019 30.09 849 25.07 13.5 56.4 37 -0.9 30.4
20:25 1019 30.09 849 25.07 13.4 56 37 -1 30.3
20:30 1020 30.12 849 25.07 13.3 55.9 36 -1.3 29.7
20:35 1020 30.12 849 25.07 13.2 55.7 35 -1.7 28.9
20:40 1020 30.12 849 25.07 13.1 55.5 37 -1.2 29.8
20:45 1020 30.12 849 25.07 12.9 55.2 36 -1.6 29.1
20:50 1020 30.12 849 25.07 12.7 54.9 36 -2 28.4
20:55 1020 30.12 849 25.07 12.6 54.7 34 -2.7 27.2
21:00 1020 30.12 849 25.07 12.5 54.5 34 -2.9 26.8
21:05 1020 30.12 850 25.1 12.4 54.3 34 -3.1 26.5
21:10 1020 30.12 850 25.1 12.3 54.1 34 -3.3 26.1
21:15 1020 30.12 850 25.1 12.1 53.8 33 -3.5 25.8
21:20 1021 30.15 850 25.1 12 53.5 34 -3.4 25.8
21:25 1021 30.15 850 25.1 11.9 53.3 33 -3.7 25.4
21:30 1021 30.15 850 25.1 11.8 53.2 33 -3.9 24.9
21:35 1021 30.15 850 25.1 11.7 53 33 -3.9 25
21:40 1021 30.15 850 25.1 11.6 52.8 34 -3.8 25.1
21:45 1021 30.15 850 25.1 11.5 52.7 34 -3.9 24.9
21:50 1021 30.15 850 25.1 11.4 52.5 34 -3.8 25.2
21:55 1021 30.15 850 25.1 11.3 52.3 35 -3.6 25.4
22:00 1021 30.15 850 25.1 11.2 52.1 35 -3.7 25.4
22:05 1021 30.15 850 25.1 11.1 52 35 -3.8 25.2
22:10 1021 30.15 850 25.1 11 51.8 35 -3.8 25.1
22:15 1021 30.15 850 25.1 10.9 51.6 35 -3.9 25.1
22:20 1021 30.15 850 25.1 10.9 51.5 35 -4 24.7
22:25 1021 30.15 850 25.1 10.8 51.4 36 -3.7 25.4
22:30 1021 30.15 850 25.1 10.7 51.2 36 -3.6 25.4
22:35 1021 30.15 850 25.1 10.6 51 37 -3.6 25.6
22:40 1021 30.15 850 25.1 10.6 51 37 -3.6 25.5
22:45 1021 30.15 850 25.1 10.5 50.9 37 -3.4 25.8
22:50 1021 30.15 850 25.1 10.4 50.7 39 -2.8 26.9
22:55 1021 30.15 850 25.1 10 49.9 40 -2.9 26.8
23:00 1021 30.15 850 25.1 9.8 49.6 40 -3 26.6
23:05 1021 30.15 850 25.1 9.8 49.6 41 -2.9 26.7
23:10 1021 30.15 850 25.1 9.8 49.6 41 -2.9 26.7
23:15 1021 30.15 850 25.1 9.7 49.5 45 -1.7 28.9
23:20 1021 30.15 850 25.1 9.2 48.5 49 -0.9 30.4
23:25 1021 30.15 850 25.1 8.8 47.9 54 0.1 32.1
23:30 1021 30.15 850 25.1 8.5 47.3 55 0.1 32.1
23:35 1021 30.15 850 25.1 8.5 47.3 55 0 32.1
23:40 1021 30.15 850 25.1 8.3 47 56 0.1 32.1
23:45 1021 30.15 850 25.1 8.1 46.5 58 0.3 32.6
23:50 1021 30.15 850 25.1 8.1 46.5 57 0.2 32.3
23:55 1021 30.15 850 25.1 7.9 46.3 57 0.1 32.1
24:00 1021 30.15 850 25.1 7.8 46 59 0.2 32.4